Time;durP1;ratioP1;P1;durP2;ratioP2;P2;SDS_P1;SDS_P2;PMS_P1;PMS_P2;Temp;Humidity;BMP_temperature;BMP_pressure;BME280_temperature;BME280_humidity;BME280_pressure;Samples;Min_cycle;Max_cycle;Signal;HPM_P1;HPM_P2
2021/09/26 00:00:50;;;;;;;40.63;20.17;;;;;;;;;;5051875;28;20498;-49
2021/09/26 00:03:16;;;;;;;28.45;16.15;;;;;;;;;;5052377;28;20083;-49
2021/09/26 00:05:43;;;;;;;37.97;18.35;;;;;;;;;;5052140;28;20055;-50
2021/09/26 00:08:09;;;;;;;36.38;16.85;;;;;;;;;;5052300;28;20477;-50
2021/09/26 00:10:35;;;;;;;38.53;17.05;;;;;;;;;;5051372;28;20029;-48
2021/09/26 00:13:01;;;;;;;35.97;19.50;;;;;;;;;;5051699;28;20036;-47
2021/09/26 00:15:27;;;;;;;34.30;19.25;;;;;;;;;;5051658;28;20028;-49
2021/09/26 00:17:54;;;;;;;38.28;20.55;;;;;;;;;;5051748;28;20488;-49
2021/09/26 00:20:20;;;;;;;32.67;17.30;;;;;;;;;;5051696;28;20075;-50
2021/09/26 00:22:47;;;;;;;51.47;22.35;;;;;;;;;;5051880;28;20060;-50
2021/09/26 00:25:18;;;;;;;45.95;23.35;;;;;;;;;;5050303;28;20501;-51
2021/09/26 00:27:44;;;;;;;48.40;25.17;;;;;;;;;;5051850;28;20025;-48
2021/09/26 00:30:11;;;;;;;45.20;24.08;;;;;;;;;;5051031;28;20056;-50
2021/09/26 00:32:37;;;;;;;59.50;25.02;;;;;;;;;;5051921;28;20032;-51
2021/09/26 00:35:04;;;;;;;45.28;23.20;;;;;;;;;;5051254;28;20064;-50
2021/09/26 00:37:33;;;;;;;47.53;22.67;;;;;;;;;;5053167;28;20124;-51
2021/09/26 00:39:59;;;;;;;53.35;23.33;;;;;;;;;;5053621;28;20055;-51
2021/09/26 00:42:25;;;;;;;55.22;23.88;;;;;;;;;;5053375;28;20029;-50
2021/09/26 00:44:51;;;;;;;61.88;28.80;;;;;;;;;;5053458;28;20017;-51
2021/09/26 00:47:17;;;;;;;52.85;25.63;;;;;;;;;;5053391;28;20032;-50
2021/09/26 00:49:43;;;;;;;71.03;39.42;;;;;;;;;;5052135;28;20477;-50
2021/09/26 00:52:10;;;;;;;75.03;31.52;;;;;;;;;;5053333;28;20029;-50
2021/09/26 00:54:36;;;;;;;65.68;26.90;;;;;;;;;;5053368;28;20029;-50
2021/09/26 00:57:05;;;;;;;73.22;31.67;;;;;;;;;;5053125;28;20021;-50
2021/09/26 00:59:31;;;;;;;69.50;30.20;;;;;;;;;;5053295;28;20138;-52
2021/09/26 01:01:57;;;;;;;89.88;39.70;;;;;;;;;;5053455;28;20021;-53
2021/09/26 01:04:23;;;;;;;73.03;34.03;;;;;;;;;;5053062;28;20028;-52
2021/09/26 01:06:52;;;;;;;75.22;32.75;;;;;;;;;;5053186;28;20025;-51
2021/09/26 01:09:28;;;;;;;92.95;44.88;;;;;;;;;;5053038;28;20131;-51
2021/09/26 01:12:07;;;;;;;71.35;35.65;;;;;;;;;;5052979;28;20031;-51
2021/09/26 01:14:49;;;;;;;86.85;43.10;;;;;;;;;;5053016;28;20025;-52
2021/09/26 01:17:23;;;;;;;81.22;41.05;;;;;;;;;;5053112;28;20029;-51
2021/09/26 01:19:58;;;;;;;110.38;49.80;;;;;;;;;;5052123;28;20029;-49
2021/09/26 01:22:39;;;;;;;98.20;43.67;;;;;;;;;;5052336;28;20025;-49
2021/09/26 01:25:24;;;;;;;126.78;55.58;;;;;;;;;;5051184;28;20063;-49
2021/09/26 01:27:59;;;;;;;147.63;60.63;;;;;;;;;;5051059;28;20025;-53
2021/09/26 01:30:37;;;;;;;165.10;69.13;;;;;;;;;;5052488;28;20037;-50
2021/09/26 01:33:07;;;;;;;122.28;50.33;;;;;;;;;;5052706;28;20049;-50
2021/09/26 01:35:36;;;;;;;134.88;53.92;;;;;;;;;;5053053;28;20443;-54
2021/09/26 01:38:10;;;;;;;145.40;56.60;;;;;;;;;;5052938;28;20051;-52
2021/09/26 01:40:46;;;;;;;158.38;64.25;;;;;;;;;;5052829;28;20025;-52
2021/09/26 01:43:15;;;;;;;208.32;78.10;;;;;;;;;;5054298;28;20100;-53
2021/09/26 01:45:52;;;;;;;236.20;85.35;;;;;;;;;;5041184;28;20090;-53
2021/09/26 01:48:20;;;;;;;236.57;89.63;;;;;;;;;;5021166;28;20041;-52
2021/09/26 01:50:49;;;;;;;207.85;78.40;;;;;;;;;;5021472;28;20119;-54
2021/09/26 01:53:15;;;;;;;240.00;88.53;;;;;;;;;;5021419;28;20048;-53
2021/09/26 01:55:43;;;;;;;265.83;97.15;;;;;;;;;;5021763;28;20449;-49
2021/09/26 01:58:09;;;;;;;238.52;91.00;;;;;;;;;;5020998;28;20112;-49
2021/09/26 02:00:38;;;;;;;235.40;87.75;;;;;;;;;;5021093;28;20026;-48
2021/09/26 02:03:05;;;;;;;238.07;87.80;;;;;;;;;;5021177;28;20022;-48
2021/09/26 02:05:31;;;;;;;238.48;89.65;;;;;;;;;;5021156;28;20036;-48
2021/09/26 02:07:58;;;;;;;247.60;92.22;;;;;;;;;;5020897;28;20093;-48
2021/09/26 02:10:25;;;;;;;253.02;91.38;;;;;;;;;;5021436;28;20033;-47
2021/09/26 02:12:51;;;;;;;237.45;88.15;;;;;;;;;;5021163;28;20030;-50
2021/09/26 02:15:20;;;;;;;227.50;86.50;;;;;;;;;;5021178;28;20525;-49
2021/09/26 02:17:46;;;;;;;227.75;84.25;;;;;;;;;;5024624;28;20508;-48
2021/09/26 02:20:14;;;;;;;253.75;90.10;;;;;;;;;;5021330;28;20025;-48
2021/09/26 02:22:41;;;;;;;236.80;90.15;;;;;;;;;;5021127;28;20053;-52
2021/09/26 02:25:10;;;;;;;239.13;93.03;;;;;;;;;;5020590;28;20110;-54
2021/09/26 02:27:37;;;;;;;239.55;90.38;;;;;;;;;;5020705;28;21593;-54
2021/09/26 02:30:05;;;;;;;243.20;90.53;;;;;;;;;;5021278;28;20084;-53
2021/09/26 02:32:33;;;;;;;238.73;87.75;;;;;;;;;;5020692;28;21107;-54
2021/09/26 02:34:59;;;;;;;251.98;91.93;;;;;;;;;;5020368;28;21435;-53
2021/09/26 02:37:26;;;;;;;282.77;103.00;;;;;;;;;;5020637;28;20104;-54
2021/09/26 02:39:52;;;;;;;239.70;86.95;;;;;;;;;;5020783;28;20064;-53
2021/09/26 02:42:21;;;;;;;221.80;78.22;;;;;;;;;;5021022;28;20424;-54
2021/09/26 02:45:14;;;;;;;233.68;89.35;;;;;;;;;;5021155;28;20033;-53
2021/09/26 02:47:43;;;;;;;190.43;69.47;;;;;;;;;;5019723;28;20045;-54
2021/09/26 02:50:10;;;;;;;153.48;58.75;;;;;;;;;;5020210;28;20060;-53
2021/09/26 02:52:36;;;;;;;121.30;51.17;;;;;;;;;;5020308;28;20114;-54
2021/09/26 02:55:05;;;;;;;175.85;64.93;;;;;;;;;;5020022;28;20029;-54
2021/09/26 02:57:34;;;;;;;160.32;60.25;;;;;;;;;;5020240;28;20030;-57
2021/09/26 03:00:00;;;;;;;150.70;59.53;;;;;;;;;;5020185;28;21188;-54
2021/09/26 03:02:33;;;;;;;170.07;66.43;;;;;;;;;;5020753;28;20021;-54
2021/09/26 03:05:00;;;;;;;165.70;67.53;;;;;;;;;;5030233;28;20469;-54
2021/09/26 03:07:26;;;;;;;202.63;79.13;;;;;;;;;;5075366;28;20021;-54
2021/09/26 03:09:52;;;;;;;216.85;91.18;;;;;;;;;;5075285;28;20039;-54
2021/09/26 03:12:21;;;;;;;217.80;97.50;;;;;;;;;;5075117;28;20016;-54
2021/09/26 03:14:47;;;;;;;240.75;103.15;;;;;;;;;;5062946;28;20029;-54
2021/09/26 03:17:13;;;;;;;227.38;94.13;;;;;;;;;;5054853;28;20090;-54
2021/09/26 03:19:40;;;;;;;223.60;93.88;;;;;;;;;;5054440;28;20021;-54
2021/09/26 03:22:06;;;;;;;254.48;99.53;;;;;;;;;;5054066;28;20021;-55
2021/09/26 03:24:39;;;;;;;226.73;86.85;;;;;;;;;;5054438;28;20067;-59
2021/09/26 03:27:09;;;;;;;210.30;82.18;;;;;;;;;;5077416;28;20472;-54
2021/09/26 03:29:41;;;;;;;213.90;85.68;;;;;;;;;;5055601;28;20052;-54
2021/09/26 03:32:09;;;;;;;207.48;81.25;;;;;;;;;;5054237;28;20098;-54
2021/09/26 03:34:36;;;;;;;177.23;71.90;;;;;;;;;;5054162;28;20020;-54
2021/09/26 03:37:02;;;;;;;199.30;76.95;;;;;;;;;;5051985;28;20044;-54
2021/09/26 03:39:28;;;;;;;163.95;63.67;;;;;;;;;;5054433;28;20016;-54
2021/09/26 03:41:55;;;;;;;168.13;65.43;;;;;;;;;;5054064;28;20032;-54
2021/09/26 03:44:21;;;;;;;199.00;71.82;;;;;;;;;;5054146;28;20403;-53
2021/09/26 03:46:47;;;;;;;156.95;63.55;;;;;;;;;;5053515;28;20036;-54
2021/09/26 03:49:13;;;;;;;144.65;59.03;;;;;;;;;;5054121;28;20041;-54
2021/09/26 03:51:39;;;;;;;155.43;59.97;;;;;;;;;;5054138;28;20040;-56
2021/09/26 03:54:06;;;;;;;146.98;59.08;;;;;;;;;;5054412;28;20108;-54
2021/09/26 03:56:32;;;;;;;171.35;67.18;;;;;;;;;;5053892;28;20025;-52
2021/09/26 03:58:58;;;;;;;161.68;66.43;;;;;;;;;;5051470;28;20029;-54
2021/09/26 04:01:24;;;;;;;194.02;75.60;;;;;;;;;;5053932;28;20028;-55
2021/09/26 04:03:50;;;;;;;198.93;77.53;;;;;;;;;;5053825;28;20029;-55
2021/09/26 04:06:16;;;;;;;167.20;66.32;;;;;;;;;;5052833;28;20048;-54
2021/09/26 04:08:42;;;;;;;143.10;57.17;;;;;;;;;;5052583;28;20064;-53
2021/09/26 04:11:09;;;;;;;115.00;46.92;;;;;;;;;;5053339;28;20070;-53
2021/09/26 04:13:35;;;;;;;100.03;41.50;;;;;;;;;;5053620;28;20059;-53
2021/09/26 04:16:04;;;;;;;88.25;39.38;;;;;;;;;;5053661;28;20026;-54
2021/09/26 04:18:30;;;;;;;83.00;37.63;;;;;;;;;;5053784;28;20029;-53
2021/09/26 04:20:56;;;;;;;82.40;33.92;;;;;;;;;;5051977;28;20477;-54
2021/09/26 04:23:22;;;;;;;72.22;30.98;;;;;;;;;;5053190;28;20045;-53
2021/09/26 04:25:51;;;;;;;76.05;32.25;;;;;;;;;;5053367;28;20025;-54
2021/09/26 04:28:17;;;;;;;70.18;30.98;;;;;;;;;;5053353;28;20158;-54
2021/09/26 04:30:43;;;;;;;70.00;30.30;;;;;;;;;;5051979;28;20392;-53
2021/09/26 04:33:09;;;;;;;72.55;35.72;;;;;;;;;;5053292;28;20031;-53
2021/09/26 04:35:35;;;;;;;64.22;29.20;;;;;;;;;;5053216;28;20024;-53
2021/09/26 04:38:01;;;;;;;89.68;39.15;;;;;;;;;;5053289;28;20406;-53
2021/09/26 04:40:27;;;;;;;58.30;26.30;;;;;;;;;;5053646;28;20033;-52
2021/09/26 04:42:53;;;;;;;54.08;24.73;;;;;;;;;;5052928;28;20021;-52
2021/09/26 04:45:19;;;;;;;46.65;23.40;;;;;;;;;;5053254;28;20036;-54
2021/09/26 04:47:45;;;;;;;47.22;21.00;;;;;;;;;;5052814;28;20107;-54
2021/09/26 04:50:12;;;;;;;46.92;20.08;;;;;;;;;;5052872;28;20047;-52
2021/09/26 04:52:39;;;;;;;46.63;19.55;;;;;;;;;;5053005;28;20104;-53
2021/09/26 04:55:05;;;;;;;45.25;19.95;;;;;;;;;;5052934;28;20384;-53
2021/09/26 04:57:32;;;;;;;42.22;19.30;;;;;;;;;;5052740;28;20021;-53
2021/09/26 04:59:58;;;;;;;32.95;17.05;;;;;;;;;;5052902;28;20488;-54
2021/09/26 05:02:25;;;;;;;30.63;17.45;;;;;;;;;;5052844;28;20028;-54
2021/09/26 05:04:51;;;;;;;29.20;16.63;;;;;;;;;;5052772;28;20025;-53
2021/09/26 05:07:17;;;;;;;38.33;17.98;;;;;;;;;;5052727;28;20033;-54
2021/09/26 05:09:44;;;;;;;34.22;16.45;;;;;;;;;;5052635;28;20503;-54
2021/09/26 05:12:10;;;;;;;40.88;16.92;;;;;;;;;;5052739;28;20409;-54
2021/09/26 05:14:36;;;;;;;32.67;16.85;;;;;;;;;;5052745;28;20017;-53
2021/09/26 05:17:06;;;;;;;31.10;15.52;;;;;;;;;;5051325;28;20067;-54
2021/09/26 05:19:32;;;;;;;30.48;16.38;;;;;;;;;;5052730;28;20017;-54
2021/09/26 05:21:59;;;;;;;28.38;16.02;;;;;;;;;;5052445;28;20424;-54
2021/09/26 05:24:25;;;;;;;31.98;17.70;;;;;;;;;;5052521;28;20045;-54
2021/09/26 05:26:52;;;;;;;34.40;18.17;;;;;;;;;;5052674;28;20070;-54
2021/09/26 05:29:18;;;;;;;46.90;26.92;;;;;;;;;;5052466;28;20036;-54
2021/09/26 05:31:44;;;;;;;39.42;19.67;;;;;;;;;;5052519;28;20067;-54
2021/09/26 05:34:10;;;;;;;31.35;18.75;;;;;;;;;;5052456;28;20063;-53
2021/09/26 05:36:37;;;;;;;33.58;18.08;;;;;;;;;;5052510;28;20028;-54
2021/09/26 05:39:04;;;;;;;42.15;22.02;;;;;;;;;;5052495;28;20032;-54
2021/09/26 05:41:30;;;;;;;31.38;19.17;;;;;;;;;;5052464;28;20024;-54
2021/09/26 05:43:56;;;;;;;28.50;17.88;;;;;;;;;;5052361;28;20468;-54
2021/09/26 05:46:22;;;;;;;35.10;16.73;;;;;;;;;;5052430;28;20086;-54
2021/09/26 05:48:48;;;;;;;30.30;17.63;;;;;;;;;;5052451;28;20485;-54
2021/09/26 05:51:14;;;;;;;27.45;14.55;;;;;;;;;;5052414;28;20416;-54
2021/09/26 05:53:40;;;;;;;27.73;14.32;;;;;;;;;;5053097;28;20036;-54
2021/09/26 05:56:07;;;;;;;28.13;16.83;;;;;;;;;;5052842;28;20028;-55
2021/09/26 05:58:33;;;;;;;24.77;14.80;;;;;;;;;;5052705;28;20503;-54
2021/09/26 06:00:59;;;;;;;27.00;15.07;;;;;;;;;;5052844;28;20534;-55
2021/09/26 06:03:25;;;;;;;34.35;16.42;;;;;;;;;;5052599;28;20108;-54
2021/09/26 06:05:51;;;;;;;36.90;17.25;;;;;;;;;;5052638;28;20036;-55
2021/09/26 06:08:17;;;;;;;28.73;15.55;;;;;;;;;;5052664;28;20102;-54
2021/09/26 06:10:43;;;;;;;32.85;16.55;;;;;;;;;;5052540;28;20472;-55
2021/09/26 06:13:10;;;;;;;29.52;16.73;;;;;;;;;;5052555;28;20029;-55
2021/09/26 06:15:36;;;;;;;36.10;17.98;;;;;;;;;;5052513;28;20552;-54
2021/09/26 06:18:07;;;;;;;35.28;17.02;;;;;;;;;;5052382;28;20036;-53
2021/09/26 06:20:33;;;;;;;33.65;17.75;;;;;;;;;;5051864;28;20017;-53
2021/09/26 06:22:59;;;;;;;45.88;25.42;;;;;;;;;;5051914;28;20468;-55
2021/09/26 06:25:28;;;;;;;67.32;35.50;;;;;;;;;;5051830;28;20497;-54
2021/09/26 06:27:54;;;;;;;39.85;23.42;;;;;;;;;;5051624;28;20078;-53
2021/09/26 06:30:20;;;;;;;59.00;32.58;;;;;;;;;;5054979;28;20108;-54
2021/09/26 06:32:51;;;;;;;47.33;24.52;;;;;;;;;;5055172;28;20086;-48
2021/09/26 06:35:17;;;;;;;36.15;20.58;;;;;;;;;;5055143;28;20108;-51
2021/09/26 06:37:43;;;;;;;30.17;17.80;;;;;;;;;;5055361;28;20064;-49
2021/09/26 06:40:10;;;;;;;47.50;22.85;;;;;;;;;;5055396;28;20052;-48
2021/09/26 06:42:36;;;;;;;32.42;17.27;;;;;;;;;;5054574;28;20035;-48
2021/09/26 06:45:02;;;;;;;122.20;70.05;;;;;;;;;;5054723;28;20035;-49
2021/09/26 06:47:29;;;;;;;77.80;43.75;;;;;;;;;;5055142;28;20021;-45
2021/09/26 06:49:55;;;;;;;140.73;73.35;;;;;;;;;;5054750;28;20390;-42
2021/09/26 06:52:21;;;;;;;130.82;59.67;;;;;;;;;;5055539;28;20093;-51
2021/09/26 06:54:47;;;;;;;366.52;216.77;;;;;;;;;;5055645;28;20080;-51
2021/09/26 06:57:13;;;;;;;127.35;66.82;;;;;;;;;;5055129;28;20025;-49
2021/09/26 06:59:39;;;;;;;58.65;34.80;;;;;;;;;;5055060;28;20025;-50
2021/09/26 07:02:06;;;;;;;76.13;47.95;;;;;;;;;;5055088;28;20036;-49
2021/09/26 07:04:32;;;;;;;31.67;19.30;;;;;;;;;;5054695;28;20049;-49
2021/09/26 07:06:58;;;;;;;37.08;20.70;;;;;;;;;;5054960;28;20017;-49
2021/09/26 07:09:25;;;;;;;27.98;16.13;;;;;;;;;;5054728;28;20099;-49
2021/09/26 07:11:51;;;;;;;24.67;15.48;;;;;;;;;;5054792;28;20013;-48
2021/09/26 07:14:17;;;;;;;26.70;16.75;;;;;;;;;;5054563;28;20381;-49
2021/09/26 07:16:43;;;;;;;39.65;19.60;;;;;;;;;;5054671;28;20017;-50
2021/09/26 07:19:12;;;;;;;80.55;47.35;;;;;;;;;;5054567;28;20485;-48
2021/09/26 07:21:38;;;;;;;60.00;32.80;;;;;;;;;;5054544;28;20027;-46
2021/09/26 07:24:05;;;;;;;39.67;17.85;;;;;;;;;;5054375;28;20048;-48
2021/09/26 07:26:31;;;;;;;42.50;24.75;;;;;;;;;;5054677;28;20025;-48
2021/09/26 07:29:00;;;;;;;50.42;33.25;;;;;;;;;;5051737;28;20047;-44
2021/09/26 07:31:26;;;;;;;26.40;16.02;;;;;;;;;;5047734;28;20028;-46
2021/09/26 07:33:52;;;;;;;73.32;34.42;;;;;;;;;;5048895;28;20033;-45
2021/09/26 07:36:18;;;;;;;77.50;38.80;;;;;;;;;;5050586;28;20033;-49
2021/09/26 07:38:44;;;;;;;54.40;29.60;;;;;;;;;;5049557;28;20027;-49
2021/09/26 07:41:10;;;;;;;58.60;33.67;;;;;;;;;;5049251;28;20504;-44
2021/09/26 07:43:36;;;;;;;65.53;35.75;;;;;;;;;;5050321;28;20028;-48
2021/09/26 07:46:03;;;;;;;53.38;33.67;;;;;;;;;;5049939;28;20039;-44
2021/09/26 07:48:31;;;;;;;29.17;19.45;;;;;;;;;;5049840;28;20515;-41
2021/09/26 07:50:58;;;;;;;53.15;28.02;;;;;;;;;;5049722;28;20439;-48
2021/09/26 07:53:24;;;;;;;41.53;22.33;;;;;;;;;;5050183;28;20380;-43
2021/09/26 07:55:51;;;;;;;78.78;49.63;;;;;;;;;;5049776;28;20048;-48
2021/09/26 07:58:17;;;;;;;24.40;13.63;;;;;;;;;;5046282;28;20029;-49
2021/09/26 08:00:43;;;;;;;22.65;13.35;;;;;;;;;;5049795;28;20045;-56
2021/09/26 08:03:10;;;;;;;31.55;16.80;;;;;;;;;;5052197;28;20024;-49
2021/09/26 08:05:36;;;;;;;24.70;15.23;;;;;;;;;;5054227;28;20025;-53
2021/09/26 08:08:02;;;;;;;23.45;12.57;;;;;;;;;;5054562;28;20033;-53
2021/09/26 08:10:28;;;;;;;34.33;19.55;;;;;;;;;;5054465;28;20044;-52
2021/09/26 08:12:54;;;;;;;22.55;12.18;;;;;;;;;;5054103;28;20021;-48
2021/09/26 08:15:23;;;;;;;19.63;9.68;;;;;;;;;;5054102;28;20033;-49
2021/09/26 08:17:50;;;;;;;13.68;8.13;;;;;;;;;;5054166;28;20146;-47
2021/09/26 08:20:17;;;;;;;11.50;7.72;;;;;;;;;;5054127;28;20391;-46
2021/09/26 08:22:43;;;;;;;12.40;7.38;;;;;;;;;;5054305;28;20365;-48
2021/09/26 08:25:10;;;;;;;35.53;8.10;;;;;;;;;;5053816;28;20049;-49
2021/09/26 08:27:37;;;;;;;13.52;7.30;;;;;;;;;;5054074;28;20036;-51
2021/09/26 08:30:08;;;;;;;22.33;10.85;;;;;;;;;;5052538;28;20040;-48
2021/09/26 08:32:34;;;;;;;;;;;;;;;;;;5054201;28;20108;-52
2021/09/26 08:35:00;;;;;;;143.05;108.13;;;;;;;;;;5053089;28;19940;-52
2021/09/26 08:37:26;;;;;;;57.97;35.08;;;;;;;;;;5053220;28;20049;-54
2021/09/26 08:39:52;;;;;;;49.03;32.72;;;;;;;;;;5053225;28;20039;-54
2021/09/26 08:42:18;;;;;;;78.75;41.58;;;;;;;;;;5053258;28;20087;-55
2021/09/26 08:44:44;;;;;;;58.88;26.58;;;;;;;;;;5050291;28;20356;-53
2021/09/26 08:47:10;;;;;;;21.83;12.77;;;;;;;;;;5053124;28;20025;-57
2021/09/26 08:49:36;;;;;;;54.65;21.08;;;;;;;;;;5053068;28;20035;-52
2021/09/26 08:52:03;;;;;;;42.90;18.75;;;;;;;;;;5052486;28;20013;-58
2021/09/26 08:54:29;;;;;;;48.35;14.02;;;;;;;;;;5052738;28;20025;-49
2021/09/26 08:56:55;;;;;;;39.05;18.65;;;;;;;;;;5052830;28;20093;-51
2021/09/26 08:59:21;;;;;;;45.20;13.80;;;;;;;;;;5052685;28;20024;-50
2021/09/26 09:01:47;;;;;;;433.98;45.17;;;;;;;;;;5052771;28;20021;-48
2021/09/26 09:04:13;;;;;;;81.38;26.83;;;;;;;;;;5052825;28;20056;-48
2021/09/26 09:06:39;;;;;;;46.47;22.05;;;;;;;;;;5052677;28;20102;-48
2021/09/26 09:09:09;;;;;;;26.88;14.63;;;;;;;;;;5053219;28;20032;-49
2021/09/26 09:11:35;;;;;;;364.80;243.50;;;;;;;;;;5053131;28;20056;-49
2021/09/26 09:14:01;;;;;;;28.23;17.02;;;;;;;;;;5053162;28;20025;-48
2021/09/26 09:16:32;;;;;;;14.77;9.13;;;;;;;;;;5053271;28;20032;-54
2021/09/26 09:18:58;;;;;;;25.77;13.80;;;;;;;;;;5053088;28;20108;-50
2021/09/26 09:21:34;;;;;;;144.85;97.88;;;;;;;;;;5053193;28;20021;-50
2021/09/26 09:24:23;;;;;;;29.83;19.50;;;;;;;;;;5052979;28;20037;-58
2021/09/26 09:26:49;;;;;;;11.63;6.90;;;;;;;;;;5053170;28;20021;-52
2021/09/26 09:29:16;;;;;;;12.55;8.05;;;;;;;;;;5052922;28;20040;-53
2021/09/26 09:31:55;;;;;;;8.02;5.32;;;;;;;;;;5053050;28;20028;-56
2021/09/26 09:34:41;;;;;;;10.70;6.22;;;;;;;;;;5053177;28;20384;-55
2021/09/26 09:37:19;;;;;;;17.10;8.25;;;;;;;;;;5052865;28;20102;-55
2021/09/26 09:40:04;;;;;;;7.85;4.90;;;;;;;;;;5052977;28;20049;-55
2021/09/26 09:42:36;;;;;;;25.30;15.75;;;;;;;;;;5052992;28;20021;-55
2021/09/26 09:45:13;;;;;;;15.95;10.93;;;;;;;;;;5052871;28;20032;-54
2021/09/26 09:48:18;;;;;;;6.88;5.05;;;;;;;;;;5053076;28;20449;-54
2021/09/26 09:50:53;;;;;;;10.00;5.00;;;;;;;;;;5030900;28;20037;-56
2021/09/26 09:53:19;;;;;;;13.90;4.90;;;;;;;;;;5030759;28;20145;-53
2021/09/26 09:55:45;;;;;;;9.63;4.88;;;;;;;;;;5030865;28;20061;-54
2021/09/26 09:58:20;;;;;;;12.98;4.15;;;;;;;;;;5030951;28;20032;-54
2021/09/26 10:00:57;;;;;;;9.40;4.00;;;;;;;;;;5030758;28;20053;-55
2021/09/26 10:03:40;;;;;;;10.57;4.57;;;;;;;;;;5031794;28;20029;-54
2021/09/26 10:06:18;;;;;;;6.90;4.45;;;;;;;;;;5034741;28;20512;-54
2021/09/26 10:08:45;;;;;;;10.90;4.45;;;;;;;;;;5017774;28;20037;-54
2021/09/26 10:11:11;;;;;;;12.07;4.45;;;;;;;;;;5034519;28;20051;-56
2021/09/26 10:13:37;;;;;;;12.20;4.35;;;;;;;;;;5034337;28;20029;-53
2021/09/26 10:16:07;;;;;;;12.75;5.40;;;;;;;;;;5034254;28;20132;-54
2021/09/26 10:18:34;;;;;;;13.38;6.35;;;;;;;;;;5034485;28;20048;-57
2021/09/26 10:21:01;;;;;;;13.52;5.47;;;;;;;;;;5040437;28;20029;-54
2021/09/26 10:23:28;;;;;;;13.30;7.30;;;;;;;;;;5056121;28;20104;-54
2021/09/26 10:25:57;;;;;;;10.85;6.30;;;;;;;;;;5056146;28;20476;-53
2021/09/26 10:28:30;;;;;;;11.50;5.70;;;;;;;;;;5049364;28;20437;-55
2021/09/26 10:30:57;;;;;;;12.02;4.03;;;;;;;;;;5053399;28;20032;-53
2021/09/26 10:33:25;;;;;;;10.05;4.05;;;;;;;;;;5055661;28;20457;-56
2021/09/26 10:35:53;;;;;;;13.23;4.68;;;;;;;;;;5055471;28;20032;-55
2021/09/26 10:38:20;;;;;;;13.15;4.40;;;;;;;;;;5055462;28;20017;-56
2021/09/26 10:40:46;;;;;;;12.70;4.88;;;;;;;;;;5055529;28;20163;-56
2021/09/26 10:43:28;;;;;;;7.10;3.85;;;;;;;;;;5055326;28;20028;-56
2021/09/26 10:46:13;;;;;;;19.80;4.63;;;;;;;;;;5054294;28;20033;-55
2021/09/26 10:48:57;;;;;;;7.03;3.90;;;;;;;;;;5055089;28;20033;-54
2021/09/26 10:51:46;;;;;;;9.30;4.13;;;;;;;;;;5052911;28;20469;-55
2021/09/26 10:54:31;;;;;;;9.88;4.40;;;;;;;;;;5054022;28;20104;-54
2021/09/26 10:57:12;;;;;;;7.53;4.30;;;;;;;;;;5054825;28;20028;-55
2021/09/26 10:59:41;;;;;;;10.93;4.35;;;;;;;;;;5055597;28;20440;-54
2021/09/26 11:02:23;;;;;;;72.90;8.35;;;;;;;;;;5054818;28;20029;-52
2021/09/26 11:04:50;;;;;;;8.07;4.38;;;;;;;;;;5054384;28;20110;-52
2021/09/26 11:07:19;;;;;;;11.73;4.55;;;;;;;;;;5055017;28;20040;-58
2021/09/26 11:09:51;;;;;;;10.65;3.85;;;;;;;;;;5054847;28;20029;-56
2021/09/26 11:12:36;;;;;;;8.10;4.32;;;;;;;;;;5052722;28;20021;-58
2021/09/26 11:15:09;;;;;;;9.23;4.40;;;;;;;;;;5052926;28;20158;-56
2021/09/26 11:17:43;;;;;;;9.20;4.32;;;;;;;;;;5052511;28;20042;-55
2021/09/26 11:20:29;;;;;;;8.48;4.07;;;;;;;;;;5055291;28;20086;-57
2021/09/26 11:23:07;;;;;;;9.52;4.13;;;;;;;;;;5051363;28;20481;-56
2021/09/26 11:25:52;;;;;;;10.50;4.22;;;;;;;;;;5055297;28;20033;-56
2021/09/26 11:28:35;;;;;;;5.93;4.22;;;;;;;;;;5055065;28;20029;-57
2021/09/26 11:31:05;;;;;;;15.95;9.88;;;;;;;;;;5054979;28;20033;-58
2021/09/26 11:33:49;;;;;;;5.87;3.63;;;;;;;;;;5055009;28;20074;-53
2021/09/26 11:36:21;;;;;;;6.88;3.78;;;;;;;;;;5054813;28;20029;-54
2021/09/26 11:38:50;;;;;;;8.57;4.63;;;;;;;;;;5054973;28;20017;-56
2021/09/26 11:41:16;;;;;;;37.88;22.13;;;;;;;;;;5053871;28;20523;-57
2021/09/26 11:43:44;;;;;;;7.70;5.00;;;;;;;;;;5054408;28;20441;-56
2021/09/26 11:46:21;;;;;;;6.43;4.68;;;;;;;;;;5054078;28;20095;-57
2021/09/26 11:48:47;;;;;;;9.73;4.70;;;;;;;;;;5052443;28;20083;-56
2021/09/26 11:51:16;;;;;;;8.02;4.65;;;;;;;;;;5054212;28;20485;-54
2021/09/26 11:53:44;;;;;;;6.97;5.03;;;;;;;;;;5054171;28;20016;-53
2021/09/26 11:56:14;;;;;;;10.27;5.22;;;;;;;;;;5054108;28;20082;-55
2021/09/26 11:58:40;;;;;;;15.60;7.05;;;;;;;;;;5054030;28;20028;-63
2021/09/26 12:01:09;;;;;;;23.60;15.90;;;;;;;;;;5049691;28;20087;-56
2021/09/26 12:03:36;;;;;;;21.85;12.73;;;;;;;;;;5034487;28;20022;-54
2021/09/26 12:06:02;;;;;;;16.77;8.95;;;;;;;;;;5034517;28;20031;-55
2021/09/26 12:08:41;;;;;;;41.10;27.35;;;;;;;;;;5034728;28;20376;-55
2021/09/26 12:11:11;;;;;;;43.72;28.33;;;;;;;;;;5034387;28;20034;-54
2021/09/26 12:13:44;;;;;;;36.40;24.08;;;;;;;;;;5034277;28;20101;-55
2021/09/26 12:16:10;;;;;;;48.63;33.08;;;;;;;;;;5033960;28;20028;-55
2021/09/26 12:18:36;;;;;;;11.55;6.45;;;;;;;;;;5034335;28;20037;-54
2021/09/26 12:21:07;;;;;;;26.63;18.42;;;;;;;;;;5034194;28;20053;-55
2021/09/26 12:23:43;;;;;;;16.60;11.48;;;;;;;;;;5034170;28;20086;-55
2021/09/26 12:26:09;;;;;;;11.40;8.23;;;;;;;;;;5033293;28;20539;-55
2021/09/26 12:28:37;;;;;;;9.57;6.03;;;;;;;;;;5033987;28;20026;-55
2021/09/26 12:31:03;;;;;;;15.57;6.47;;;;;;;;;;5037576;28;20112;-56
2021/09/26 12:33:36;;;;;;;30.23;18.80;;;;;;;;;;5053827;28;20029;-55
2021/09/26 12:36:06;;;;;;;9.07;6.03;;;;;;;;;;5053719;28;20495;-53
2021/09/26 12:38:34;;;;;;;13.85;6.47;;;;;;;;;;5053696;28;20039;-55
2021/09/26 12:41:03;;;;;;;10.20;6.35;;;;;;;;;;5053625;28;20095;-57
2021/09/26 12:43:35;;;;;;;10.15;5.53;;;;;;;;;;5053695;28;20031;-56
2021/09/26 12:46:01;;;;;;;8.35;4.72;;;;;;;;;;5053407;28;20029;-52
2021/09/26 12:48:28;;;;;;;11.40;6.45;;;;;;;;;;5053451;28;20040;-57
2021/09/26 12:50:55;;;;;;;15.05;7.47;;;;;;;;;;5052292;28;20083;-53
2021/09/26 12:53:23;;;;;;;31.40;16.55;;;;;;;;;;5053418;28;20104;-56
2021/09/26 12:55:49;;;;;;;29.45;14.13;;;;;;;;;;5053172;28;20025;-54
2021/09/26 12:58:29;;;;;;;16.88;8.25;;;;;;;;;;5053293;28;20078;-56
2021/09/26 13:01:07;;;;;;;11.27;5.82;;;;;;;;;;5053165;28;20175;-56
2021/09/26 13:03:33;;;;;;;18.40;7.50;;;;;;;;;;5051995;28;20025;-56
2021/09/26 13:06:01;;;;;;;7.00;4.97;;;;;;;;;;5053085;28;20146;-57
2021/09/26 13:08:33;;;;;;;10.90;5.10;;;;;;;;;;5053086;28;20112;-57
2021/09/26 13:11:05;;;;;;;11.45;5.63;;;;;;;;;;5053248;28;20037;-57
2021/09/26 13:13:42;;;;;;;9.20;5.25;;;;;;;;;;5053072;28;20021;-55
2021/09/26 13:16:18;;;;;;;10.50;5.88;;;;;;;;;;5052960;28;20080;-57
2021/09/26 13:18:44;;;;;;;14.55;5.47;;;;;;;;;;5053113;28;20029;-59
2021/09/26 13:21:40;;;;;;;14.88;5.07;;;;;;;;;;5053131;28;20086;-57
2021/09/26 13:24:10;;;;;;;14.23;5.88;;;;;;;;;;5030778;28;20033;-57
2021/09/26 13:26:38;;;;;;;10.60;5.10;;;;;;;;;;5014348;28;20509;-57
2021/09/26 13:29:30;;;;;;;14.60;4.75;;;;;;;;;;5030860;28;20033;-57
2021/09/26 13:31:58;;;;;;;12.55;5.20;;;;;;;;;;5029091;28;20060;-57
2021/09/26 13:34:32;;;;;;;10.95;4.70;;;;;;;;;;5031018;28;20036;-55
2021/09/26 13:37:06;;;;;;;11.30;4.55;;;;;;;;;;5031412;28;20025;-57
2021/09/26 13:39:35;;;;;;;13.40;4.40;;;;;;;;;;5035251;28;20037;-55
2021/09/26 13:42:19;;;;;;;12.93;5.28;;;;;;;;;;5035012;28;20424;-55
2021/09/26 13:44:48;;;;;;;21.27;4.63;;;;;;;;;;5034793;28;20141;-55
2021/09/26 13:47:15;;;;;;;13.95;4.57;;;;;;;;;;5035002;28;20528;-55
2021/09/26 13:49:41;;;;;;;11.20;4.45;;;;;;;;;;5034969;28;20061;-55
2021/09/26 13:52:08;;;;;;;12.32;3.97;;;;;;;;;;5034827;28;20452;-55
2021/09/26 13:54:34;;;;;;;11.60;5.00;;;;;;;;;;5034642;28;20049;-55
2021/09/26 13:57:00;;;;;;;14.07;4.88;;;;;;;;;;5017573;28;20026;-55
2021/09/26 13:59:26;;;;;;;9.90;4.00;;;;;;;;;;5034913;28;20053;-55
2021/09/26 14:01:53;;;;;;;23.02;8.35;;;;;;;;;;5047214;28;20100;-58
2021/09/26 14:04:21;;;;;;;23.30;8.00;;;;;;;;;;5056753;28;20028;-55
2021/09/26 14:06:48;;;;;;;13.75;4.25;;;;;;;;;;5056787;28;20021;-55
2021/09/26 14:09:14;;;;;;;15.43;3.92;;;;;;;;;;5056647;28;20040;-56
2021/09/26 14:11:40;;;;;;;15.02;4.00;;;;;;;;;;5056665;28;20095;-59
2021/09/26 14:14:07;;;;;;;15.98;5.45;;;;;;;;;;5056558;28;20067;-57
2021/09/26 14:16:33;;;;;;;8.80;4.80;;;;;;;;;;5056361;28;20037;-52
2021/09/26 14:19:00;;;;;;;17.70;4.03;;;;;;;;;;5056363;28;20025;-56
2021/09/26 14:21:26;;;;;;;18.05;4.43;;;;;;;;;;5056488;28;20033;-56
2021/09/26 14:23:53;;;;;;;16.02;4.22;;;;;;;;;;5056222;28;20068;-57
2021/09/26 14:26:20;;;;;;;17.98;3.80;;;;;;;;;;5056304;28;20025;-56
2021/09/26 14:28:46;;;;;;;12.38;3.85;;;;;;;;;;5056314;28;20469;-55